Time,TemperatureF,DewpointF,PressureIn,WindDirection,WindDirectionDegrees,WindSpeedMPH,WindSpeedGustMPH,Humidity,HourlyPrecipIn,Conditions,Clouds,dailyrainin,SoftwareType,DateUTC
2013-04-01 00:02:00,15.0,11.0,30.22,WNW,296,2.0,4.0,83,0.00,,,0.00,,2013-04-01 05:02:00,
2013-04-01 00:12:00,15.0,11.0,30.22,WNW,296,2.0,4.0,83,0.00,,,0.00,,2013-04-01 05:12:00,
2013-04-01 00:22:00,15.0,11.0,30.21,NW,319,3.0,6.0,83,0.00,,,0.00,,2013-04-01 05:22:00,
2013-04-01 00:32:00,15.0,11.0,30.21,WNW,301,3.0,7.0,83,0.00,,,0.00,,2013-04-01 05:32:00,
2013-04-01 00:42:00,15.0,11.0,30.21,WNW,301,3.0,7.0,83,0.00,,,0.00,,2013-04-01 05:42:00,
2013-04-01 00:53:00,15.0,11.0,30.22,NW,321,2.0,8.0,83,0.00,,,0.00,,2013-04-01 05:53:00,
2013-04-01 01:02:00,15.0,11.0,30.22,NW,311,3.0,7.0,83,0.00,,,0.00,,2013-04-01 06:02:00,
2013-04-01 01:12:00,15.0,11.0,30.22,NW,311,3.0,7.0,83,0.00,,,0.00,,2013-04-01 06:12:00,
2013-04-01 01:22:00,15.0,11.0,30.22,WNW,295,3.0,7.0,82,0.00,,,0.00,,2013-04-01 06:22:00,
2013-04-01 01:33:00,15.0,10.0,30.22,NW,318,5.0,9.0,79,0.00,,,0.00,,2013-04-01 06:33:00,
2013-04-01 01:42:00,15.0,10.0,30.22,NW,318,5.0,9.0,79,0.00,,,0.00,,2013-04-01 06:42:00,
2013-04-01 01:53:00,16.0,11.0,30.22,NW,319,5.0,9.0,80,0.00,,,0.00,,2013-04-01 06:53:00,
2013-04-01 02:02:00,15.0,10.0,30.22,WNW,291,4.0,8.0,80,0.00,,,0.00,,2013-04-01 07:02:00,
2013-04-01 02:12:00,15.0,10.0,30.22,WNW,291,4.0,8.0,80,0.00,,,0.00,,2013-04-01 07:12:00,
2013-04-01 02:22:00,15.0,9.0,30.23,NW,305,5.0,10.0,78,0.00,,,0.00,,2013-04-01 07:22:00,
2013-04-01 02:32:00,15.0,10.0,30.23,WNW,303,5.0,10.0,79,0.00,,,0.00,,2013-04-01 07:32:00,
2013-04-01 02:42:00,15.0,10.0,30.23,WNW,303,5.0,10.0,79,0.00,,,0.00,,2013-04-01 07:42:00,
2013-04-01 02:53:00,15.0,10.0,30.23,NW,311,5.0,10.0,79,0.00,,,0.00,,2013-04-01 07:53:00,
2013-04-01 03:02:00,15.0,10.0,30.23,NW,321,4.0,9.0,79,0.00,,,0.00,,2013-04-01 08:02:00,
2013-04-01 03:12:00,15.0,10.0,30.23,NW,321,4.0,9.0,79,0.00,,,0.00,,2013-04-01 08:12:00,
2013-04-01 03:22:00,14.0,9.0,30.23,NW,308,4.0,8.0,79,0.00,,,0.00,,2013-04-01 08:22:00,
2013-04-01 03:32:00,14.0,9.0,30.24,NW,308,3.0,7.0,79,0.00,,,0.00,,2013-04-01 08:32:00,
2013-04-01 03:43:00,14.0,9.0,30.24,NW,308,3.0,7.0,79,0.00,,,0.00,,2013-04-01 08:43:00,
2013-04-01 03:53:00,14.0,9.0,30.24,NW,324,4.0,9.0,80,0.00,,,0.00,,2013-04-01 08:53:00,
2013-04-01 04:02:00,14.0,9.0,30.24,NW,326,4.0,9.0,80,0.00,,,0.00,,2013-04-01 09:02:00,
2013-04-01 04:12:00,14.0,9.0,30.24,NW,326,4.0,9.0,80,0.00,,,0.00,,2013-04-01 09:12:00,
2013-04-01 04:22:00,13.0,8.0,30.25,NW,307,3.0,7.0,81,0.00,,,0.00,,2013-04-01 09:22:00,
2013-04-01 04:33:00,12.0,7.0,30.25,NW,311,3.0,7.0,81,0.00,,,0.00,,2013-04-01 09:33:00,
2013-04-01 04:42:00,12.0,7.0,30.25,NW,311,3.0,7.0,81,0.00,,,0.00,,2013-04-01 09:42:00,
2013-04-01 04:53:00,12.0,8.0,30.26,NW,315,3.0,6.0,83,0.00,,,0.00,,2013-04-01 09:53:00,
2013-04-01 05:03:00,12.0,8.0,30.26,NW,311,3.0,6.0,83,0.00,,,0.00,,2013-04-01 10:03:00,
2013-04-01 05:12:00,12.0,8.0,30.26,NW,311,3.0,6.0,83,0.00,,,0.00,,2013-04-01 10:12:00,
2013-04-01 05:23:00,12.0,8.0,30.27,NW,326,3.0,6.0,83,0.00,,,0.00,,2013-04-01 10:23:00,
2013-04-01 05:33:00,12.0,8.0,30.27,NW,326,3.0,6.0,83,0.00,,,0.00,,2013-04-01 10:33:00,
2013-04-01 05:42:00,12.0,8.0,30.27,NW,326,3.0,6.0,83,0.00,,,0.00,,2013-04-01 10:42:00,
2013-04-01 05:53:00,11.0,7.0,30.27,NW,308,3.0,6.0,85,0.00,,,0.00,,2013-04-01 10:53:00,
2013-04-01 06:03:00,11.0,7.0,30.28,WNW,288,2.0,5.0,84,0.00,,,0.00,,2013-04-01 11:03:00,
2013-04-01 06:13:00,11.0,7.0,30.28,WNW,288,2.0,5.0,84,0.00,,,0.00,,2013-04-01 11:13:00,
2013-04-01 06:23:00,10.0,6.0,30.29,West,276,2.0,5.0,83,0.00,,,0.00,,2013-04-01 11:23:00,
2013-04-01 06:33:00,9.0,5.0,30.29,NW,307,1.0,5.0,83,0.00,,,0.00,,2013-04-01 11:33:00,
2013-04-01 06:42:00,9.0,5.0,30.29,NW,307,1.0,5.0,83,0.00,,,0.00,,2013-04-01 11:42:00,
2013-04-01 06:53:00,9.0,5.0,30.29,WNW,285,4.0,7.0,84,0.00,,,0.00,,2013-04-01 11:53:00,
2013-04-01 07:02:00,8.0,4.0,30.29,NW,305,3.0,6.0,83,0.00,,,0.00,,2013-04-01 12:02:00,
2013-04-01 07:12:00,8.0,4.0,30.29,NW,305,3.0,6.0,83,0.00,,,0.00,,2013-04-01 12:12:00,
2013-04-01 07:23:00,7.0,3.0,30.29,WNW,286,4.0,6.0,84,0.00,,,0.00,,2013-04-01 12:23:00,
2013-04-01 07:32:00,8.0,5.0,30.29,WNW,293,3.0,7.0,86,0.00,,,0.00,,2013-04-01 12:32:00,
2013-04-01 07:42:00,8.0,5.0,30.29,WNW,293,3.0,7.0,86,0.00,,,0.00,,2013-04-01 12:42:00,
2013-04-01 07:53:00,9.0,5.0,30.29,NW,305,3.0,7.0,85,0.00,,,0.00,,2013-04-01 12:53:00,
2013-04-01 08:02:00,9.0,5.0,30.29,NW,305,3.0,7.0,85,0.00,,,0.00,,2013-04-01 13:02:00,
2013-04-01 08:12:00,9.0,5.0,30.29,NW,305,3.0,7.0,85,0.00,,,0.00,,2013-04-01 13:12:00,
2013-04-01 08:22:00,11.0,7.0,30.30,NW,319,3.0,7.0,82,0.00,,,0.00,,2013-04-01 13:22:00,
2013-04-01 08:32:00,11.0,6.0,30.30,WNW,292,3.0,7.0,80,0.00,,,0.00,,2013-04-01 13:32:00,
2013-04-01 08:43:00,11.0,6.0,30.30,WNW,292,3.0,7.0,80,0.00,,,0.00,,2013-04-01 13:43:00,
2013-04-01 08:52:00,12.0,7.0,30.31,NW,314,4.0,7.0,80,0.00,,,0.00,,2013-04-01 13:52:00,
2013-04-01 09:03:00,13.0,8.0,30.31,NW,317,2.0,6.0,80,0.00,,,0.00,,2013-04-01 14:03:00,
2013-04-01 09:12:00,13.0,8.0,30.31,NW,317,2.0,6.0,80,0.00,,,0.00,,2013-04-01 14:12:00,
2013-04-01 09:22:00,14.0,9.0,30.31,NW,309,3.0,7.0,80,0.00,,,0.00,,2013-04-01 14:22:00,
2013-04-01 09:32:00,15.0,10.0,30.31,West,271,3.0,7.0,79,0.00,,,0.00,,2013-04-01 14:32:00,
2013-04-01 09:42:00,15.0,10.0,30.31,West,271,3.0,7.0,79,0.00,,,0.00,,2013-04-01 14:42:00,
2013-04-01 09:53:00,16.0,11.0,30.31,WNW,295,3.0,6.0,80,0.00,,,0.00,,2013-04-01 14:53:00,
2013-04-01 10:03:00,17.0,11.0,30.31,NW,304,3.0,6.0,78,0.00,,,0.00,,2013-04-01 15:03:00,
2013-04-01 10:13:00,17.0,11.0,30.31,NW,304,3.0,6.0,78,0.00,,,0.00,,2013-04-01 15:13:00,
2013-04-01 10:22:00,17.0,11.0,30.32,West,276,4.0,8.0,76,0.00,,,0.00,,2013-04-01 15:22:00,
2013-04-01 10:34:00,18.0,12.0,30.32,WNW,283,3.0,7.0,76,0.00,,,0.00,,2013-04-01 15:34:00,
2013-04-01 10:43:00,18.0,12.0,30.32,WNW,283,3.0,7.0,76,0.00,,,0.00,,2013-04-01 15:43:00,
2013-04-01 10:54:00,18.0,12.0,30.32,WNW,283,3.0,7.0,76,0.00,,,0.00,,2013-04-01 15:54:00,
2013-04-01 11:03:00,19.0,13.0,30.32,WNW,301,5.0,8.0,76,0.00,,,0.00,,2013-04-01 16:03:00,
2013-04-01 11:13:00,19.0,13.0,30.32,WNW,301,5.0,8.0,76,0.00,,,0.00,,2013-04-01 16:13:00,
2013-04-01 11:23:00,20.0,13.0,30.32,West,263,3.0,7.0,74,0.00,,,0.00,,2013-04-01 16:23:00,
2013-04-01 11:33:00,21.0,13.0,30.32,West,269,4.0,7.0,71,0.00,,,0.00,,2013-04-01 16:33:00,
2013-04-01 11:42:00,21.0,13.0,30.32,West,269,4.0,7.0,71,0.00,,,0.00,,2013-04-01 16:42:00,
2013-04-01 11:53:00,22.0,14.0,30.32,West,278,3.0,8.0,71,0.00,,,0.00,,2013-04-01 16:53:00,
2013-04-01 12:03:00,23.0,16.0,30.32,WNW,288,4.0,8.0,73,0.00,,,0.00,,2013-04-01 17:03:00,
2013-04-01 12:12:00,23.0,16.0,30.32,WNW,288,4.0,8.0,73,0.00,,,0.00,,2013-04-01 17:12:00,
2013-04-01 12:22:00,23.0,15.0,30.32,NW,308,3.0,8.0,72,0.00,,,0.00,,2013-04-01 17:22:00,
2013-04-01 12:32:00,23.0,15.0,30.32,NW,308,3.0,8.0,72,0.00,,,0.00,,2013-04-01 17:32:00,
2013-04-01 12:42:00,23.0,15.0,30.32,NW,308,3.0,8.0,72,0.00,,,0.00,,2013-04-01 17:42:00,
2013-04-01 12:53:00,25.0,15.0,30.32,WNW,295,6.0,12.0,66,0.00,,,0.00,,2013-04-01 17:53:00,
2013-04-01 13:02:00,25.0,16.0,30.32,NW,311,7.0,11.0,69,0.00,,,0.00,,2013-04-01 18:02:00,
2013-04-01 13:12:00,25.0,16.0,30.32,NW,311,7.0,11.0,69,0.00,,,0.00,,2013-04-01 18:12:00,
2013-04-01 13:22:00,25.0,16.0,30.32,WNW,297,6.0,11.0,69,0.00,,,0.00,,2013-04-01 18:22:00,
2013-04-01 13:32:00,25.0,16.0,30.32,WNW,297,6.0,11.0,69,0.00,,,0.00,,2013-04-01 18:32:00,
2013-04-01 13:42:00,25.0,16.0,30.32,WNW,297,6.0,11.0,69,0.00,,,0.00,,2013-04-01 18:42:00,
2013-04-01 13:53:00,25.0,16.0,30.32,NW,312,5.0,9.0,68,0.00,,,0.00,,2013-04-01 18:53:00,
2013-04-01 14:03:00,25.0,15.0,30.31,WNW,291,6.0,11.0,66,0.00,,,0.00,,2013-04-01 19:03:00,
2013-04-01 14:12:00,25.0,15.0,30.31,WNW,291,6.0,11.0,66,0.00,,,0.00,,2013-04-01 19:12:00,
2013-04-01 14:23:00,26.0,16.0,30.31,NW,321,7.0,13.0,66,0.00,,,0.00,,2013-04-01 19:23:00,
2013-04-01 14:32:00,27.0,17.0,30.31,NW,308,4.0,12.0,66,0.00,,,0.00,,2013-04-01 19:32:00,
2013-04-01 14:42:00,27.0,17.0,30.31,NW,308,4.0,12.0,66,0.00,,,0.00,,2013-04-01 19:42:00,
2013-04-01 14:53:00,27.0,15.0,30.31,NW,308,6.0,13.0,60,0.00,,,0.00,,2013-04-01 19:53:00,
2013-04-01 15:02:00,27.0,16.0,30.31,NW,322,6.0,12.0,62,0.00,,,0.00,,2013-04-01 20:02:00,
2013-04-01 15:13:00,27.0,16.0,30.31,NW,322,6.0,12.0,62,0.00,,,0.00,,2013-04-01 20:13:00,
2013-04-01 15:22:00,27.0,16.0,30.31,NW,314,7.0,11.0,62,0.00,,,0.00,,2013-04-01 20:22:00,
2013-04-01 15:32:00,28.0,17.0,30.31,NW,316,6.0,10.0,64,0.00,,,0.00,,2013-04-01 20:32:00,
2013-04-01 15:42:00,28.0,17.0,30.31,NW,316,6.0,10.0,64,0.00,,,0.00,,2013-04-01 20:42:00,
2013-04-01 15:52:00,28.0,16.0,30.30,WNW,298,6.0,12.0,61,0.00,,,0.00,,2013-04-01 20:52:00,
2013-04-01 16:02:00,28.0,17.0,30.30,NW,305,6.0,11.0,62,0.00,,,0.00,,2013-04-01 21:02:00,
2013-04-01 16:12:00,28.0,17.0,30.30,NW,305,6.0,11.0,62,0.00,,,0.00,,2013-04-01 21:12:00,
2013-04-01 16:22:00,28.0,18.0,30.30,NW,314,6.0,12.0,65,0.00,,,0.00,,2013-04-01 21:22:00,
2013-04-01 16:32:00,29.0,18.0,30.29,NW,324,6.0,12.0,64,0.00,,,0.00,,2013-04-01 21:32:00,
2013-04-01 16:43:00,29.0,18.0,30.29,NW,324,6.0,12.0,64,0.00,,,0.00,,2013-04-01 21:43:00,
2013-04-01 16:53:00,28.0,14.0,30.30,North,350,7.0,13.0,56,0.00,,,0.00,,2013-04-01 21:53:00,
2013-04-01 17:02:00,28.0,16.0,30.29,NNW,329,6.0,12.0,60,0.00,,,0.00,,2013-04-01 22:02:00,
2013-04-01 17:12:00,28.0,16.0,30.29,NNW,329,6.0,12.0,60,0.00,,,0.00,,2013-04-01 22:12:00,
2013-04-01 17:22:00,28.0,16.0,30.29,NNW,347,5.0,11.0,61,0.00,,,0.00,,2013-04-01 22:22:00,
2013-04-01 17:33:00,29.0,16.0,30.29,NW,305,5.0,10.0,58,0.00,,,0.00,,2013-04-01 22:33:00,
2013-04-01 17:43:00,29.0,16.0,30.29,NW,305,5.0,10.0,58,0.00,,,0.00,,2013-04-01 22:43:00,
2013-04-01 17:52:00,29.0,18.0,30.29,NW,307,5.0,10.0,62,0.00,,,0.00,,2013-04-01 22:52:00,
2013-04-01 18:02:00,28.0,17.0,30.29,NNW,330,3.0,12.0,63,0.00,,,0.00,,2013-04-01 23:02:00,
2013-04-01 18:12:00,28.0,17.0,30.29,NNW,330,3.0,12.0,63,0.00,,,0.00,,2013-04-01 23:12:00,
2013-04-01 18:22:00,28.0,17.0,30.29,NW,311,4.0,12.0,63,0.00,,,0.00,,2013-04-01 23:22:00,
2013-04-01 18:32:00,28.0,17.0,30.28,WNW,298,4.0,10.0,63,0.00,,,0.00,,2013-04-01 23:32:00,
2013-04-01 18:42:00,28.0,17.0,30.28,WNW,298,4.0,10.0,63,0.00,,,0.00,,2013-04-01 23:42:00,
2013-04-01 18:53:00,28.0,18.0,30.28,NW,323,6.0,11.0,65,0.00,,,0.00,,2013-04-01 23:53:00,
2013-04-01 19:02:00,27.0,18.0,30.28,WNW,284,6.0,10.0,69,0.00,,,0.00,,2013-04-02 00:02:00,
2013-04-01 19:12:00,27.0,18.0,30.28,WNW,284,6.0,10.0,69,0.00,,,0.00,,2013-04-02 00:12:00,
2013-04-01 19:22:00,27.0,18.0,30.28,NW,323,6.0,10.0,69,0.00,,,0.00,,2013-04-02 00:22:00,
2013-04-01 19:33:00,27.0,18.0,30.28,NW,323,6.0,10.0,69,0.00,,,0.00,,2013-04-02 00:33:00,
2013-04-01 19:42:00,27.0,18.0,30.28,NW,323,6.0,10.0,69,0.00,,,0.00,,2013-04-02 00:42:00,
2013-04-01 19:53:00,27.0,18.0,30.28,NW,323,6.0,10.0,69,0.00,,,0.00,,2013-04-02 00:53:00,
2013-04-01 20:02:00,25.0,18.0,30.27,WNW,293,2.0,6.0,73,0.00,,,0.00,,2013-04-02 01:02:00,
2013-04-01 20:12:00,25.0,18.0,30.27,WNW,293,2.0,6.0,73,0.00,,,0.00,,2013-04-02 01:12:00,
2013-04-01 20:22:00,24.0,17.0,30.27,NW,308,3.0,5.0,74,0.00,,,0.00,,2013-04-02 01:22:00,
2013-04-01 20:32:00,23.0,17.0,30.27,NW,319,1.0,4.0,77,0.00,,,0.00,,2013-04-02 01:32:00,
2013-04-01 20:42:00,23.0,17.0,30.27,NW,319,1.0,4.0,77,0.00,,,0.00,,2013-04-02 01:42:00,
2013-04-01 20:53:00,23.0,17.0,30.26,WNW,290,1.0,3.0,77,0.00,,,0.00,,2013-04-02 01:53:00,
2013-04-01 21:02:00,22.0,16.0,30.26,WNW,296,1.0,3.0,79,0.00,,,0.00,,2013-04-02 02:02:00,
2013-04-01 21:12:00,22.0,16.0,30.26,WNW,296,1.0,3.0,79,0.00,,,0.00,,2013-04-02 02:12:00,
2013-04-01 21:22:00,21.0,16.0,30.27,WNW,294,1.0,4.0,81,0.00,,,0.00,,2013-04-02 02:22:00,
2013-04-01 21:32:00,21.0,16.0,30.27,WNW,285,1.0,4.0,80,0.00,,,0.00,,2013-04-02 02:32:00,
2013-04-01 21:42:00,21.0,16.0,30.27,WNW,285,1.0,4.0,80,0.00,,,0.00,,2013-04-02 02:42:00,
2013-04-01 21:52:00,21.0,16.0,30.27,WNW,291,2.0,5.0,81,0.00,,,0.00,,2013-04-02 02:52:00,
2013-04-01 22:02:00,20.0,16.0,30.28,WNW,285,1.0,4.0,83,0.00,,,0.00,,2013-04-02 03:02:00,
2013-04-01 22:12:00,20.0,16.0,30.28,WNW,285,1.0,4.0,83,0.00,,,0.00,,2013-04-02 03:12:00,
2013-04-01 22:22:00,19.0,15.0,30.28,WNW,290,1.0,3.0,84,0.00,,,0.00,,2013-04-02 03:22:00,
2013-04-01 22:33:00,20.0,16.0,30.28,West,270,1.0,3.0,84,0.00,,,0.00,,2013-04-02 03:33:00,
2013-04-01 22:43:00,20.0,16.0,30.28,West,270,1.0,3.0,84,0.00,,,0.00,,2013-04-02 03:43:00,
2013-04-01 22:52:00,20.0,16.0,30.28,WNW,285,2.0,5.0,83,0.00,,,0.00,,2013-04-02 03:52:00,
2013-04-01 23:03:00,20.0,16.0,30.28,WNW,288,2.0,6.0,84,0.00,,,0.00,,2013-04-02 04:03:00,
2013-04-01 23:13:00,20.0,16.0,30.28,WNW,288,2.0,6.0,84,0.00,,,0.00,,2013-04-02 04:13:00,
2013-04-01 23:23:00,20.0,16.0,30.28,WNW,288,2.0,6.0,84,0.00,,,0.00,,2013-04-02 04:23:00,
2013-04-01 23:32:00,20.0,16.0,30.28,WNW,288,2.0,6.0,84,0.00,,,0.00,,2013-04-02 04:32:00,
2013-04-01 23:43:00,20.0,16.0,30.28,WNW,288,2.0,6.0,84,0.00,,,0.00,,2013-04-02 04:43:00,
2013-04-01 23:53:00,18.0,15.0,30.27,WNW,300,4.0,7.0,87,0.00,,,0.00,,2013-04-02 04:53:00,